Time,TemperatureF,DewpointF,PressureIn,WindDirection,WindDirectionDegrees,WindSpeedMPH,WindSpeedGustMPH,Humidity,HourlyPrecipIn,Conditions,Clouds,dailyrainin,SoftwareType,DateUTC
2013-06-07 00:01:00,62.8,60.1,29.38,SSE,158,2.2,2.2,91,0.00,,,0.00,VWS V14.01,2013-06-07 04:01:00,
2013-06-07 00:02:00,62.8,60.1,29.38,SSW,202,3.1,3.1,91,0.00,,,0.00,VWS V14.01,2013-06-07 04:02:00,
2013-06-07 00:07:00,62.8,60.1,29.38,WNW,292,1.6,1.6,91,0.00,,,0.00,VWS V14.01,2013-06-07 04:07:00,
2013-06-07 00:12:00,63.0,60.3,29.38,SSW,202,2.9,2.9,91,0.00,,,0.00,VWS V14.01,2013-06-07 04:12:00,
2013-06-07 00:17:00,63.0,60.3,29.38,South,180,6.0,6.0,91,0.00,,,0.00,VWS V14.01,2013-06-07 04:17:00,
2013-06-07 00:22:00,63.0,60.3,29.38,SSW,202,1.3,1.3,91,0.00,,,0.00,VWS V14.01,2013-06-07 04:22:00,
2013-06-07 00:27:00,63.0,60.3,29.38,South,180,3.6,3.6,91,0.00,,,0.00,VWS V14.01,2013-06-07 04:27:00,
2013-06-07 00:32:00,63.0,60.3,29.38,SE,135,1.1,1.1,91,0.00,,,0.00,VWS V14.01,2013-06-07 04:32:00,
2013-06-07 00:37:00,63.0,60.3,29.38,SSW,202,3.1,3.1,91,0.00,,,0.00,VWS V14.01,2013-06-07 04:37:00,
2013-06-07 00:42:00,63.0,60.3,29.38,SSE,158,3.6,3.6,91,0.00,,,0.00,VWS V14.01,2013-06-07 04:42:00,
2013-06-07 00:48:00,63.0,60.3,29.38,South,180,0.9,0.9,91,0.00,,,0.00,VWS V14.01,2013-06-07 04:48:00,
2013-06-07 00:53:00,63.0,60.0,29.38,SE,135,0.0,0.0,90,0.00,,,0.00,VWS V14.01,2013-06-07 04:53:00,
2013-06-07 00:58:00,63.0,60.3,29.38,South,180,0.9,0.9,91,0.00,,,0.00,VWS V14.01,2013-06-07 04:58:00,
2013-06-07 01:03:00,63.0,60.0,29.38,SE,135,0.9,0.9,90,0.00,,,0.00,VWS V14.01,2013-06-07 05:03:00,
2013-06-07 01:08:00,63.0,60.0,29.38,SSW,202,2.2,2.2,90,0.00,,,0.00,VWS V14.01,2013-06-07 05:08:00,
2013-06-07 01:13:00,63.0,60.0,29.38,SW,225,0.0,0.0,90,0.00,,,0.00,VWS V14.01,2013-06-07 05:13:00,
2013-06-07 01:18:00,63.0,60.0,29.38,South,180,1.1,1.1,90,0.00,,,0.00,VWS V14.01,2013-06-07 05:18:00,
2013-06-07 01:23:00,63.0,60.0,29.38,SSE,158,0.0,0.0,90,0.00,,,0.00,VWS V14.01,2013-06-07 05:23:00,
2013-06-07 01:28:00,63.0,60.3,29.38,WSW,248,0.0,0.0,91,0.00,,,0.00,VWS V14.01,2013-06-07 05:28:00,
2013-06-07 01:33:00,63.0,60.3,29.38,SW,225,0.0,0.0,91,0.00,,,0.00,VWS V14.01,2013-06-07 05:33:00,
2013-06-07 01:38:00,62.8,60.1,29.38,SSE,158,1.1,1.1,91,0.00,,,0.00,VWS V14.01,2013-06-07 05:38:00,
2013-06-07 01:43:00,62.8,60.1,29.35,SSE,158,0.0,0.0,91,0.00,,,0.00,VWS V14.01,2013-06-07 05:43:00,
2013-06-07 01:48:00,62.8,60.1,29.35,South,180,0.0,0.0,91,0.00,,,0.00,VWS V14.01,2013-06-07 05:48:00,
2013-06-07 01:53:00,62.8,60.4,29.35,SSE,158,0.0,0.0,92,0.00,,,0.00,VWS V14.01,2013-06-07 05:53:00,
2013-06-07 01:58:00,62.8,60.4,29.35,SSE,158,0.0,0.0,92,0.00,,,0.00,VWS V14.01,2013-06-07 05:58:00,
2013-06-07 02:03:00,62.8,60.4,29.35,SSE,158,0.0,0.0,92,0.00,,,0.00,VWS V14.01,2013-06-07 06:03:00,
2013-06-07 02:08:00,62.8,60.4,29.35,NNW,338,2.5,2.5,92,0.00,,,0.00,VWS V14.01,2013-06-07 06:08:00,
2013-06-07 02:13:00,63.0,60.6,29.35,NW,315,1.3,1.3,92,0.00,,,0.00,VWS V14.01,2013-06-07 06:13:00,
2013-06-07 02:18:00,62.8,60.4,29.35,NNW,338,1.3,1.3,92,0.00,,,0.00,VWS V14.01,2013-06-07 06:18:00,
2013-06-07 02:23:00,62.8,60.4,29.35,North,0,2.0,2.0,92,0.00,,,0.00,VWS V14.01,2013-06-07 06:23:00,
2013-06-07 02:28:00,62.8,60.4,29.35,North,0,0.0,0.0,92,0.00,,,0.00,VWS V14.01,2013-06-07 06:28:00,
2013-06-07 02:34:00,62.8,60.4,29.35,NE,45,0.0,0.0,92,0.00,,,0.00,VWS V14.01,2013-06-07 06:34:00,
2013-06-07 02:39:00,62.8,60.4,29.35,NW,315,0.0,0.0,92,0.00,,,0.00,VWS V14.01,2013-06-07 06:39:00,
2013-06-07 02:44:00,62.8,60.7,29.35,NW,315,0.0,0.0,93,0.00,,,0.00,VWS V14.01,2013-06-07 06:44:00,
2013-06-07 02:49:00,63.0,60.9,29.35,NW,315,0.0,0.0,93,0.00,,,0.00,VWS V14.01,2013-06-07 06:49:00,
2013-06-07 02:54:00,62.8,60.7,29.35,East,90,1.1,1.1,93,0.00,,,0.00,VWS V14.01,2013-06-07 06:54:00,
2013-06-07 02:59:00,63.0,60.9,29.35,SSE,158,1.1,1.1,93,0.00,,,0.00,VWS V14.01,2013-06-07 06:59:00,
2013-06-07 03:04:00,63.0,60.9,29.35,SSW,202,2.7,2.7,93,0.00,,,0.00,VWS V14.01,2013-06-07 07:04:00,
2013-06-07 03:09:00,63.0,60.9,29.35,South,180,2.5,2.5,93,0.00,,,0.00,VWS V14.01,2013-06-07 07:09:00,
2013-06-07 03:14:00,63.0,60.9,29.35,WSW,248,3.4,3.4,93,0.00,,,0.00,VWS V14.01,2013-06-07 07:14:00,
2013-06-07 03:19:00,63.1,61.1,29.35,South,180,0.0,0.0,93,0.00,,,0.00,VWS V14.01,2013-06-07 07:19:00,
2013-06-07 03:24:00,63.1,61.1,29.35,SSW,202,0.9,0.9,93,0.00,,,0.00,VWS V14.01,2013-06-07 07:24:00,
2013-06-07 03:29:00,63.1,61.1,29.35,South,180,2.0,2.0,93,0.00,,,0.00,VWS V14.01,2013-06-07 07:29:00,
2013-06-07 03:34:00,63.1,61.1,29.35,SSW,202,2.5,2.5,93,0.00,,,0.00,VWS V14.01,2013-06-07 07:34:00,
2013-06-07 03:39:00,63.1,61.1,29.35,SSE,158,1.3,1.3,93,0.00,,,0.00,VWS V14.01,2013-06-07 07:39:00,
2013-06-07 03:44:00,63.1,61.1,29.35,SSW,202,0.0,0.0,93,0.00,,,0.00,VWS V14.01,2013-06-07 07:44:00,
2013-06-07 03:49:00,63.1,61.1,29.35,East,90,0.0,0.0,93,0.00,,,0.00,VWS V14.01,2013-06-07 07:49:00,
2013-06-07 03:54:00,63.1,61.1,29.35,WSW,248,0.0,0.0,93,0.00,,,0.00,VWS V14.01,2013-06-07 07:54:00,
2013-06-07 03:59:00,63.1,61.1,29.35,SSW,202,0.0,0.0,93,0.00,,,0.00,VWS V14.01,2013-06-07 07:59:00,
2013-06-07 04:04:00,63.1,61.1,29.35,NNE,22,3.1,3.1,93,0.00,,,0.00,VWS V14.01,2013-06-07 08:04:00,
2013-06-07 04:09:00,63.1,61.1,29.32,NNE,22,3.4,3.4,93,0.00,,,0.00,VWS V14.01,2013-06-07 08:09:00,
2013-06-07 04:14:00,63.1,61.1,29.32,NNE,22,3.1,3.1,93,0.00,,,0.00,VWS V14.01,2013-06-07 08:14:00,
2013-06-07 04:19:00,63.0,60.9,29.32,NE,45,2.5,2.5,93,0.00,,,0.00,VWS V14.01,2013-06-07 08:19:00,
2013-06-07 04:25:00,63.0,60.9,29.32,NE,45,1.6,1.6,93,0.00,,,0.00,VWS V14.01,2013-06-07 08:25:00,
2013-06-07 04:30:00,63.0,61.2,29.32,NE,45,1.6,1.6,94,0.00,,,0.00,VWS V14.01,2013-06-07 08:30:00,
2013-06-07 04:35:00,63.0,61.2,29.32,NE,45,1.1,1.1,94,0.00,,,0.00,VWS V14.01,2013-06-07 08:35:00,
2013-06-07 04:40:00,63.0,61.2,29.32,NE,45,1.3,1.3,94,0.00,,,0.00,VWS V14.01,2013-06-07 08:40:00,
2013-06-07 04:45:00,63.0,61.2,29.32,NE,45,0.0,0.0,94,0.00,,,0.00,VWS V14.01,2013-06-07 08:45:00,
2013-06-07 04:50:00,63.0,61.2,29.32,NE,45,2.0,2.0,94,0.00,,,0.00,VWS V14.01,2013-06-07 08:50:00,
2013-06-07 04:55:00,63.0,61.2,29.32,NE,45,2.0,2.0,94,0.00,,,0.00,VWS V14.01,2013-06-07 08:55:00,
2013-06-07 05:00:00,63.0,61.2,29.32,NNE,22,3.4,3.4,94,0.00,,,0.00,VWS V14.01,2013-06-07 09:00:00,
2013-06-07 05:05:00,63.0,61.2,29.32,NNE,22,2.5,2.5,94,0.00,,,0.00,VWS V14.01,2013-06-07 09:05:00,
2013-06-07 05:10:00,63.0,61.5,29.32,North,0,2.9,2.9,95,0.00,,,0.00,VWS V14.01,2013-06-07 09:10:00,
2013-06-07 05:15:00,63.0,61.5,29.32,NNE,22,2.7,2.7,95,0.00,,,0.00,VWS V14.01,2013-06-07 09:15:00,
2013-06-07 05:20:00,63.0,61.5,29.32,NNE,22,2.7,2.7,95,0.00,,,0.00,VWS V14.01,2013-06-07 09:20:00,
2013-06-07 05:25:00,63.0,61.5,29.35,NNE,22,2.0,2.0,95,0.00,,,0.00,VWS V14.01,2013-06-07 09:25:00,
2013-06-07 05:30:00,63.0,61.5,29.35,NE,45,3.1,3.1,95,0.00,,,0.00,VWS V14.01,2013-06-07 09:30:00,
2013-06-07 05:35:00,63.0,61.5,29.35,NNE,22,2.2,2.2,95,0.00,,,0.00,VWS V14.01,2013-06-07 09:35:00,
2013-06-07 05:41:00,63.0,61.5,29.32,NNE,22,3.4,3.4,95,0.00,,,0.00,VWS V14.01,2013-06-07 09:41:00,
2013-06-07 05:46:00,63.0,61.5,29.32,NNE,22,3.8,3.8,95,0.00,,,0.00,VWS V14.01,2013-06-07 09:46:00,
2013-06-07 05:51:00,63.0,61.5,29.32,NNE,22,3.6,3.6,95,0.00,,,0.00,VWS V14.01,2013-06-07 09:51:00,
2013-06-07 05:56:00,63.0,61.5,29.32,NNE,22,3.6,3.6,95,0.00,,,0.00,VWS V14.01,2013-06-07 09:56:00,
2013-06-07 06:01:00,63.0,61.5,29.32,NNE,22,4.0,4.0,95,0.00,,,0.00,VWS V14.01,2013-06-07 10:01:00,
2013-06-07 06:06:00,63.0,61.5,29.32,NE,45,3.8,3.8,95,0.00,,,0.00,VWS V14.01,2013-06-07 10:06:00,
2013-06-07 06:11:00,63.0,61.8,29.32,NE,45,2.5,2.5,96,0.00,,,0.00,VWS V14.01,2013-06-07 10:11:00,
2013-06-07 06:16:00,63.0,61.8,29.32,NE,45,2.7,2.7,96,0.00,,,0.00,VWS V14.01,2013-06-07 10:16:00,
2013-06-07 06:21:00,63.0,61.8,29.32,NE,45,2.7,2.7,96,0.00,,,0.00,VWS V14.01,2013-06-07 10:21:00,
2013-06-07 06:27:00,63.0,61.8,29.32,ENE,68,4.0,4.0,96,0.00,,,0.00,VWS V14.01,2013-06-07 10:27:00,
2013-06-07 06:32:00,63.0,61.8,29.32,NNE,22,2.9,2.9,96,0.00,,,0.00,VWS V14.01,2013-06-07 10:32:00,
2013-06-07 06:37:00,63.0,61.8,29.32,NNE,22,3.4,3.4,96,0.00,,,0.00,VWS V14.01,2013-06-07 10:37:00,
2013-06-07 06:42:00,63.0,61.8,29.32,NE,45,3.4,3.4,96,0.00,,,0.00,VWS V14.01,2013-06-07 10:42:00,
2013-06-07 06:47:00,62.8,61.6,29.32,ENE,68,2.5,2.5,96,0.00,,,0.00,VWS V14.01,2013-06-07 10:47:00,
2013-06-07 06:52:00,62.8,61.6,29.32,NE,45,4.0,4.0,96,0.00,,,0.00,VWS V14.01,2013-06-07 10:52:00,
2013-06-07 06:57:00,62.8,61.6,29.32,NE,45,2.7,2.7,96,0.00,,,0.00,VWS V14.01,2013-06-07 10:57:00,
2013-06-07 07:02:00,62.8,61.6,29.32,ENE,68,1.6,1.6,96,0.00,,,0.00,VWS V14.01,2013-06-07 11:02:00,
2013-06-07 07:07:00,62.8,61.6,29.32,NE,45,3.1,3.1,96,0.00,,,0.00,VWS V14.01,2013-06-07 11:07:00,
2013-06-07 07:12:00,62.8,61.6,29.32,NE,45,1.6,1.6,96,0.00,,,0.00,VWS V14.01,2013-06-07 11:12:00,
2013-06-07 07:17:00,63.0,61.8,29.32,ENE,68,0.0,0.0,96,0.00,,,0.00,VWS V14.01,2013-06-07 11:17:00,
2013-06-07 07:22:00,63.0,61.8,29.32,NE,45,0.9,0.9,96,0.00,,,0.00,VWS V14.01,2013-06-07 11:22:00,
2013-06-07 07:27:00,63.0,61.8,29.32,NE,45,1.6,1.6,96,0.00,,,0.00,VWS V14.01,2013-06-07 11:27:00,
2013-06-07 07:32:00,63.0,61.8,29.32,NE,45,3.1,3.1,96,0.00,,,0.00,VWS V14.01,2013-06-07 11:32:00,
2013-06-07 07:37:00,63.0,61.8,29.32,ENE,68,3.6,3.6,96,0.00,,,0.00,VWS V14.01,2013-06-07 11:37:00,
2013-06-07 07:42:00,63.0,61.8,29.35,NE,45,2.9,2.9,96,0.00,,,0.00,VWS V14.01,2013-06-07 11:42:00,
2013-06-07 07:48:00,63.0,61.8,29.35,NE,45,3.8,3.8,96,0.00,,,0.00,VWS V14.01,2013-06-07 11:48:00,
2013-06-07 07:53:00,63.0,61.8,29.35,NE,45,2.5,2.5,96,0.00,,,0.00,VWS V14.01,2013-06-07 11:53:00,
2013-06-07 07:58:00,63.1,62.0,29.32,NNE,22,4.3,4.3,96,0.00,,,0.00,VWS V14.01,2013-06-07 11:58:00,
2013-06-07 08:03:00,63.1,62.0,29.32,NE,45,2.7,2.7,96,0.00,,,0.00,VWS V14.01,2013-06-07 12:03:00,
2013-06-07 08:08:00,63.1,62.0,29.32,NE,45,4.0,4.0,96,0.00,,,0.00,VWS V14.01,2013-06-07 12:08:00,
2013-06-07 08:13:00,63.1,62.0,29.32,NE,45,3.4,3.4,96,0.00,,,0.00,VWS V14.01,2013-06-07 12:13:00,
2013-06-07 08:18:00,63.1,62.0,29.32,NE,45,2.2,2.2,96,0.00,,,0.00,VWS V14.01,2013-06-07 12:18:00,
2013-06-07 08:23:00,63.1,62.0,29.32,ENE,68,2.7,2.7,96,0.00,,,0.00,VWS V14.01,2013-06-07 12:23:00,
2013-06-07 08:28:00,63.3,62.2,29.32,ENE,68,3.1,3.1,96,0.00,,,0.00,VWS V14.01,2013-06-07 12:28:00,
2013-06-07 08:33:00,63.3,62.2,29.32,NE,45,3.1,3.1,96,0.00,,,0.00,VWS V14.01,2013-06-07 12:33:00,
2013-06-07 08:38:00,63.5,62.3,29.32,ENE,68,3.4,3.4,96,0.00,,,0.00,VWS V14.01,2013-06-07 12:38:00,
2013-06-07 08:43:00,63.5,62.3,29.32,NE,45,4.0,4.0,96,0.00,,,0.00,VWS V14.01,2013-06-07 12:43:00,
2013-06-07 08:48:00,63.7,62.5,29.32,NE,45,7.4,7.4,96,0.00,,,0.00,VWS V14.01,2013-06-07 12:48:00,
2013-06-07 08:53:00,63.7,62.5,29.32,NNE,22,2.5,2.5,96,0.00,,,0.00,VWS V14.01,2013-06-07 12:53:00,
2013-06-07 08:58:00,63.9,62.7,29.29,NE,45,4.0,4.0,96,0.00,,,0.00,VWS V14.01,2013-06-07 12:58:00,
2013-06-07 09:03:00,63.9,62.7,29.29,NE,45,2.7,2.7,96,0.00,,,0.00,VWS V14.01,2013-06-07 13:03:00,
2013-06-07 09:08:00,63.9,62.7,29.32,NE,45,2.9,2.9,96,0.00,,,0.00,VWS V14.01,2013-06-07 13:08:00,
2013-06-07 09:13:00,63.9,62.7,29.32,ENE,68,2.5,2.5,96,0.00,,,0.00,VWS V14.01,2013-06-07 13:13:00,
2013-06-07 09:18:00,63.9,62.7,29.32,NE,45,3.1,3.1,96,0.00,,,0.00,VWS V14.01,2013-06-07 13:18:00,
2013-06-07 09:23:00,64.0,62.9,29.32,NE,45,3.4,3.4,96,0.00,,,0.00,VWS V14.01,2013-06-07 13:23:00,
2013-06-07 09:29:00,64.0,62.9,29.32,NE,45,2.9,2.9,96,0.00,,,0.00,VWS V14.01,2013-06-07 13:29:00,
2013-06-07 09:34:00,64.2,63.1,29.32,NNE,22,2.9,2.9,96,0.00,,,0.00,VWS V14.01,2013-06-07 13:34:00,
2013-06-07 09:39:00,64.4,63.2,29.32,NNE,22,4.5,4.5,96,0.00,,,0.00,VWS V14.01,2013-06-07 13:39:00,
2013-06-07 09:44:00,64.4,63.2,29.32,NNE,22,4.0,4.0,96,0.00,,,0.00,VWS V14.01,2013-06-07 13:44:00,
2013-06-07 09:49:00,64.4,63.2,29.32,NE,45,2.7,2.7,96,0.00,,,0.00,VWS V14.01,2013-06-07 13:49:00,
2013-06-07 09:54:00,64.6,63.4,29.29,NE,45,4.3,4.3,96,0.00,,,0.00,VWS V14.01,2013-06-07 13:54:00,
2013-06-07 09:59:00,64.6,63.4,29.29,NNE,22,4.3,4.3,96,0.00,,,0.00,VWS V14.01,2013-06-07 13:59:00,
2013-06-07 10:04:00,64.6,63.1,29.29,NE,45,4.3,4.3,95,0.00,,,0.00,VWS V14.01,2013-06-07 14:04:00,
2013-06-07 10:09:00,64.8,63.6,29.32,NNE,22,3.1,3.1,96,0.00,,,0.00,VWS V14.01,2013-06-07 14:09:00,
2013-06-07 10:14:00,64.8,63.6,29.32,NNE,22,4.0,4.0,96,0.00,,,0.00,VWS V14.01,2013-06-07 14:14:00,
2013-06-07 10:19:00,64.9,63.5,29.32,NE,45,4.0,4.0,95,0.00,,,0.00,VWS V14.01,2013-06-07 14:19:00,
2013-06-07 10:24:00,65.1,64.0,29.32,NNE,22,2.9,2.9,96,0.00,,,0.00,VWS V14.01,2013-06-07 14:24:00,
2013-06-07 10:29:00,65.1,64.0,29.32,NE,45,3.4,3.4,96,0.00,,,0.00,VWS V14.01,2013-06-07 14:29:00,
2013-06-07 10:34:00,65.5,64.3,29.32,ENE,68,1.1,1.1,96,0.00,,,0.00,VWS V14.01,2013-06-07 14:34:00,
2013-06-07 10:39:00,65.5,64.0,29.32,NE,45,2.9,2.9,95,0.00,,,0.00,VWS V14.01,2013-06-07 14:39:00,
2013-06-07 10:44:00,65.5,64.0,29.32,NNE,22,3.8,3.8,95,0.00,,,0.00,VWS V14.01,2013-06-07 14:44:00,
2013-06-07 10:49:00,65.5,64.0,29.32,NNE,22,3.4,3.4,95,0.00,,,0.00,VWS V14.01,2013-06-07 14:49:00,
2013-06-07 10:54:00,65.7,64.2,29.29,East,90,0.0,0.0,95,0.00,,,0.00,VWS V14.01,2013-06-07 14:54:00,
2013-06-07 10:59:00,65.8,64.4,29.29,ENE,68,1.6,1.6,95,0.00,,,0.00,VWS V14.01,2013-06-07 14:59:00,
2013-06-07 11:04:00,65.8,64.4,29.29,NE,45,0.9,0.9,95,0.00,,,0.00,VWS V14.01,2013-06-07 15:04:00,
2013-06-07 11:09:00,65.8,64.1,29.32,NE,45,1.3,1.3,94,0.00,,,0.00,VWS V14.01,2013-06-07 15:09:00,
2013-06-07 11:14:00,65.8,64.1,29.32,NE,45,2.2,2.2,94,0.00,,,0.00,VWS V14.01,2013-06-07 15:14:00,
2013-06-07 11:19:00,65.8,64.1,29.32,NE,45,2.2,2.2,94,0.00,,,0.00,VWS V14.01,2013-06-07 15:19:00,
2013-06-07 11:24:00,65.8,64.1,29.32,NE,45,4.0,4.0,94,0.00,,,0.00,VWS V14.01,2013-06-07 15:24:00,
2013-06-07 11:29:00,65.8,64.1,29.32,NE,45,3.8,3.8,94,0.00,,,0.00,VWS V14.01,2013-06-07 15:29:00,
2013-06-07 11:34:00,65.8,64.1,29.32,NNE,22,3.6,3.6,94,0.00,,,0.00,VWS V14.01,2013-06-07 15:34:00,
2013-06-07 11:39:00,65.8,64.1,29.32,NE,45,3.8,3.8,94,0.00,,,0.00,VWS V14.01,2013-06-07 15:39:00,
2013-06-07 11:44:00,65.8,64.1,29.32,NE,45,2.7,2.7,94,0.00,,,0.00,VWS V14.01,2013-06-07 15:44:00,
2013-06-07 11:49:00,65.8,64.1,29.32,NNE,22,0.0,0.0,94,0.00,,,0.00,VWS V14.01,2013-06-07 15:49:00,
2013-06-07 11:54:00,66.0,64.2,29.32,NE,45,2.5,2.5,94,0.00,,,0.00,VWS V14.01,2013-06-07 15:54:00,
2013-06-07 11:59:00,66.0,64.2,29.32,NE,45,3.1,3.1,94,0.00,,,0.00,VWS V14.01,2013-06-07 15:59:00,
2013-06-07 12:04:00,66.0,64.2,29.32,NE,45,1.6,1.6,94,0.00,,,0.00,VWS V14.01,2013-06-07 16:04:00,
2013-06-07 12:09:00,66.0,64.2,29.29,NE,45,2.9,2.9,94,0.00,,,0.00,VWS V14.01,2013-06-07 16:09:00,
2013-06-07 12:14:00,66.0,64.2,29.29,NE,45,2.5,2.5,94,0.00,,,0.00,VWS V14.01,2013-06-07 16:14:00,
2013-06-07 12:20:00,66.0,64.2,29.29,ESE,112,2.5,2.5,94,0.00,,,0.00,VWS V14.01,2013-06-07 16:20:00,
2013-06-07 12:25:00,66.0,64.2,29.32,ENE,68,2.0,2.0,94,0.00,,,0.00,VWS V14.01,2013-06-07 16:25:00,
2013-06-07 12:30:00,66.0,64.2,29.32,NE,45,0.0,0.0,94,0.00,,,0.00,VWS V14.01,2013-06-07 16:30:00,
2013-06-07 12:35:00,66.0,64.6,29.32,NE,45,3.1,3.1,95,0.00,,,0.00,VWS V14.01,2013-06-07 16:35:00,
2013-06-07 12:40:00,66.0,64.2,29.32,NE,45,2.7,2.7,94,0.00,,,0.00,VWS V14.01,2013-06-07 16:40:00,
2013-06-07 12:45:00,66.0,64.2,29.32,NE,45,0.0,0.0,94,0.00,,,0.00,VWS V14.01,2013-06-07 16:45:00,
2013-06-07 12:50:00,66.2,64.4,29.32,NNE,22,2.7,2.7,94,0.00,,,0.00,VWS V14.01,2013-06-07 16:50:00,
2013-06-07 12:55:00,66.2,64.4,29.32,NE,45,2.5,2.5,94,0.00,,,0.00,VWS V14.01,2013-06-07 16:55:00,
2013-06-07 13:00:00,66.0,64.2,29.32,NNE,22,5.4,5.4,94,0.00,,,0.00,VWS V14.01,2013-06-07 17:00:00,
2013-06-07 13:05:00,66.0,64.2,29.32,NE,45,2.7,2.7,94,0.00,,,0.00,VWS V14.01,2013-06-07 17:05:00,
2013-06-07 13:10:00,66.0,64.2,29.32,NNE,22,2.7,2.7,94,0.00,,,0.00,VWS V14.01,2013-06-07 17:10:00,
2013-06-07 13:15:00,66.0,64.2,29.32,NNE,22,2.9,2.9,94,0.00,,,0.00,VWS V14.01,2013-06-07 17:15:00,
2013-06-07 13:20:00,66.0,64.2,29.32,NE,45,4.3,4.3,94,0.00,,,0.00,VWS V14.01,2013-06-07 17:20:00,
2013-06-07 13:25:00,66.0,64.2,29.32,NNE,22,5.4,5.4,94,0.00,,,0.00,VWS V14.01,2013-06-07 17:25:00,
2013-06-07 13:30:00,66.0,64.2,29.32,NNE,22,4.0,4.0,94,0.00,,,0.00,VWS V14.01,2013-06-07 17:30:00,
2013-06-07 13:35:00,66.0,64.2,29.32,NNE,22,3.8,3.8,94,0.00,,,0.00,VWS V14.01,2013-06-07 17:35:00,
2013-06-07 13:40:00,66.0,64.2,29.29,NNE,22,4.5,4.5,94,0.00,,,0.00,VWS V14.01,2013-06-07 17:40:00,
2013-06-07 13:45:00,66.0,64.2,29.29,NE,45,2.7,2.7,94,0.00,,,0.00,VWS V14.01,2013-06-07 17:45:00,
2013-06-07 13:50:00,66.0,64.2,29.29,ENE,68,2.0,2.0,94,0.00,,,0.00,VWS V14.01,2013-06-07 17:50:00,
2013-06-07 13:55:00,66.0,64.2,29.29,NE,45,2.5,2.5,94,0.00,,,0.00,VWS V14.01,2013-06-07 17:55:00,
2013-06-07 14:00:00,66.0,64.2,29.29,NE,45,4.3,4.3,94,0.00,,,0.00,VWS V14.01,2013-06-07 18:00:00,
2013-06-07 14:07:00,66.0,64.6,29.29,NNE,22,4.3,4.3,95,0.00,,,0.00,VWS V14.01,2013-06-07 18:07:00,
2013-06-07 14:12:00,66.0,64.6,29.29,NE,45,4.0,4.0,95,0.00,,,0.00,VWS V14.01,2013-06-07 18:12:00,
2013-06-07 14:17:00,66.2,64.4,29.29,NE,45,3.1,3.1,94,0.00,,,0.00,VWS V14.01,2013-06-07 18:17:00,
2013-06-07 14:22:00,66.2,64.4,29.29,NE,45,4.3,4.3,94,0.00,,,0.00,VWS V14.01,2013-06-07 18:22:00,
2013-06-07 14:27:00,66.2,64.7,29.26,NE,45,5.4,5.4,95,0.00,,,0.00,VWS V14.01,2013-06-07 18:27:00,
2013-06-07 14:32:00,66.2,64.4,29.26,NE,45,3.4,3.4,94,0.00,,,0.00,VWS V14.01,2013-06-07 18:32:00,
2013-06-07 14:38:00,66.2,64.4,29.26,NE,45,3.4,3.4,94,0.00,,,0.00,VWS V14.01,2013-06-07 18:38:00,
2013-06-07 14:43:00,66.4,64.6,29.26,NE,45,2.9,2.9,94,0.00,,,0.00,VWS V14.01,2013-06-07 18:43:00,
2013-06-07 14:48:00,66.4,64.6,29.26,NE,45,6.5,6.5,94,0.00,,,0.00,VWS V14.01,2013-06-07 18:48:00,
2013-06-07 14:53:00,66.4,64.6,29.26,NNE,22,3.8,3.8,94,0.00,,,0.00,VWS V14.01,2013-06-07 18:53:00,
2013-06-07 14:58:00,66.2,64.4,29.23,NE,45,2.7,2.7,94,0.00,,,0.00,VWS V14.01,2013-06-07 18:58:00,
2013-06-07 15:03:00,66.2,64.4,29.23,NE,45,4.3,4.3,94,0.00,,,0.00,VWS V14.01,2013-06-07 19:03:00,
2013-06-07 15:08:00,66.2,64.4,29.23,NNE,22,2.9,2.9,94,0.00,,,0.00,VWS V14.01,2013-06-07 19:08:00,
2013-06-07 15:13:00,66.2,64.4,29.23,NE,45,3.6,3.6,94,0.00,,,0.00,VWS V14.01,2013-06-07 19:13:00,
2013-06-07 15:19:00,66.2,64.4,29.23,NE,45,3.8,3.8,94,0.00,,,0.00,VWS V14.01,2013-06-07 19:19:00,
2013-06-07 15:24:00,66.2,64.4,29.26,ENE,68,2.5,2.5,94,0.00,,,0.00,VWS V14.01,2013-06-07 19:24:00,
2013-06-07 15:29:00,66.2,64.4,29.26,NE,45,4.3,4.3,94,0.00,,,0.00,VWS V14.01,2013-06-07 19:29:00,
2013-06-07 15:34:00,66.2,64.4,29.26,NE,45,2.5,2.5,94,0.00,,,0.00,VWS V14.01,2013-06-07 19:34:00,
2013-06-07 15:39:00,66.2,64.4,29.26,NE,45,5.8,5.8,94,0.00,,,0.00,VWS V14.01,2013-06-07 19:39:00,
2013-06-07 15:44:00,66.4,64.6,29.26,NE,45,3.6,3.6,94,0.00,,,0.00,VWS V14.01,2013-06-07 19:44:00,
2013-06-07 15:49:00,66.4,64.9,29.26,ENE,68,6.0,6.0,95,0.00,,,0.00,VWS V14.01,2013-06-07 19:49:00,
2013-06-07 15:54:00,66.4,64.9,29.26,ENE,68,7.4,7.4,95,0.00,,,0.00,VWS V14.01,2013-06-07 19:54:00,
2013-06-07 15:59:00,66.4,64.6,29.26,NNE,22,4.3,4.3,94,0.00,,,0.00,VWS V14.01,2013-06-07 19:59:00,
2013-06-07 16:04:00,66.6,64.8,29.26,East,90,6.5,6.5,94,0.00,,,0.00,VWS V14.01,2013-06-07 20:04:00,
2013-06-07 16:10:00,66.6,64.8,29.23,NE,45,4.3,4.3,94,0.00,,,0.00,VWS V14.01,2013-06-07 20:10:00,
2013-06-07 16:15:00,66.6,64.8,29.23,NE,45,7.2,7.2,94,0.00,,,0.00,VWS V14.01,2013-06-07 20:15:00,
2013-06-07 16:20:00,66.4,64.3,29.23,ENE,68,8.5,8.5,93,0.00,,,0.00,VWS V14.01,2013-06-07 20:20:00,
2013-06-07 16:25:00,66.4,64.3,29.23,NNE,22,3.4,3.4,93,0.00,,,0.00,VWS V14.01,2013-06-07 20:25:00,
2013-06-07 16:30:00,66.2,63.8,29.23,ENE,68,7.2,7.2,92,0.00,,,0.00,VWS V14.01,2013-06-07 20:30:00,
2013-06-07 16:35:00,66.0,63.6,29.23,NE,45,7.4,7.4,92,0.00,,,0.00,VWS V14.01,2013-06-07 20:35:00,
2013-06-07 16:41:00,66.0,63.6,29.23,NE,45,5.4,5.4,92,0.00,,,0.00,VWS V14.01,2013-06-07 20:41:00,
2013-06-07 16:46:00,65.8,63.5,29.23,ENE,68,3.1,3.1,92,0.00,,,0.00,VWS V14.01,2013-06-07 20:46:00,
2013-06-07 16:51:00,65.8,63.5,29.23,East,90,3.1,3.1,92,0.00,,,0.00,VWS V14.01,2013-06-07 20:51:00,
2013-06-07 16:57:00,65.7,63.3,29.23,NNE,22,5.4,5.4,92,0.00,,,0.00,VWS V14.01,2013-06-07 20:57:00,
2013-06-07 17:02:00,65.7,63.3,29.23,NE,45,5.8,5.8,92,0.00,,,0.00,VWS V14.01,2013-06-07 21:02:00,
2013-06-07 17:07:00,65.7,63.3,29.23,NE,45,4.3,4.3,92,0.00,,,0.00,VWS V14.01,2013-06-07 21:07:00,
2013-06-07 17:12:00,65.7,63.3,29.23,ENE,68,3.4,3.4,92,0.00,,,0.00,VWS V14.01,2013-06-07 21:12:00,
2013-06-07 17:17:00,65.7,63.3,29.23,NE,45,3.1,3.1,92,0.00,,,0.00,VWS V14.01,2013-06-07 21:17:00,
2013-06-07 17:22:00,65.7,63.3,29.23,NE,45,3.8,3.8,92,0.00,,,0.00,VWS V14.01,2013-06-07 21:22:00,
2013-06-07 17:27:00,65.7,63.3,29.23,NNE,22,4.0,4.0,92,0.00,,,0.00,VWS V14.01,2013-06-07 21:27:00,
2013-06-07 17:33:00,65.7,63.3,29.23,NE,45,3.1,3.1,92,0.00,,,0.00,VWS V14.01,2013-06-07 21:33:00,
2013-06-07 17:38:00,65.7,63.6,29.23,NE,45,2.5,2.5,93,0.00,,,0.00,VWS V14.01,2013-06-07 21:38:00,
2013-06-07 17:43:00,65.7,63.6,29.23,NNE,22,3.6,3.6,93,0.00,,,0.00,VWS V14.01,2013-06-07 21:43:00,
2013-06-07 17:48:00,65.7,63.6,29.23,NNE,22,5.6,5.6,93,0.00,,,0.00,VWS V14.01,2013-06-07 21:48:00,
2013-06-07 17:53:00,65.7,63.3,29.23,North,0,4.0,4.0,92,0.00,,,0.00,VWS V14.01,2013-06-07 21:53:00,
2013-06-07 17:58:00,65.7,63.6,29.23,North,0,4.3,4.3,93,0.00,,,0.00,VWS V14.01,2013-06-07 21:58:00,
2013-06-07 18:03:00,65.7,63.3,29.23,NNW,338,3.6,3.6,92,0.00,,,0.00,VWS V14.01,2013-06-07 22:03:00,
2013-06-07 18:08:00,65.7,63.3,29.23,North,0,4.9,4.9,92,0.00,,,0.00,VWS V14.01,2013-06-07 22:08:00,
2013-06-07 18:14:00,65.5,63.1,29.23,North,0,3.8,3.8,92,0.00,,,0.00,VWS V14.01,2013-06-07 22:14:00,
2013-06-07 18:19:00,65.5,63.1,29.23,North,0,4.0,4.0,92,0.00,,,0.00,VWS V14.01,2013-06-07 22:19:00,
2013-06-07 18:24:00,65.5,63.1,29.23,NNE,22,8.7,8.7,92,0.00,,,0.00,VWS V14.01,2013-06-07 22:24:00,
2013-06-07 18:29:00,65.5,63.4,29.23,ENE,68,3.8,3.8,93,0.00,,,0.00,VWS V14.01,2013-06-07 22:29:00,
2013-06-07 18:34:00,65.5,63.4,29.23,NE,45,6.3,6.3,93,0.00,,,0.00,VWS V14.01,2013-06-07 22:34:00,
2013-06-07 18:39:00,65.5,63.4,29.20,NE,45,4.3,4.3,93,0.00,,,0.00,VWS V14.01,2013-06-07 22:39:00,
2013-06-07 18:45:00,65.5,63.4,29.20,NE,45,6.5,6.5,93,0.00,,,0.00,VWS V14.01,2013-06-07 22:45:00,
2013-06-07 18:50:00,65.5,63.4,29.20,NE,45,5.6,5.6,93,0.00,,,0.00,VWS V14.01,2013-06-07 22:50:00,
2013-06-07 18:55:00,65.7,63.6,29.20,East,90,3.8,3.8,93,0.00,,,0.00,VWS V14.01,2013-06-07 22:55:00,
2013-06-07 19:00:00,65.7,63.6,29.20,ESE,112,6.0,6.0,93,0.00,,,0.00,VWS V14.01,2013-06-07 23:00:00,
2013-06-07 19:05:00,65.7,63.6,29.20,NNE,22,3.8,3.8,93,0.00,,,0.00,VWS V14.01,2013-06-07 23:05:00,
2013-06-07 19:10:00,65.8,63.8,29.20,NE,45,10.1,10.1,93,0.00,,,0.00,VWS V14.01,2013-06-07 23:10:00,
2013-06-07 19:15:00,65.8,63.8,29.20,NE,45,3.6,3.6,93,0.00,,,0.00,VWS V14.01,2013-06-07 23:15:00,
2013-06-07 19:20:00,65.8,63.8,29.20,ENE,68,6.9,6.9,93,0.00,,,0.00,VWS V14.01,2013-06-07 23:20:00,
2013-06-07 19:26:00,65.8,63.5,29.20,NE,45,5.6,5.6,92,0.00,,,0.00,VWS V14.01,2013-06-07 23:26:00,
2013-06-07 19:31:00,65.8,63.5,29.20,NNE,22,5.4,5.4,92,0.00,,,0.00,VWS V14.01,2013-06-07 23:31:00,
2013-06-07 19:36:00,65.8,63.5,29.20,NNE,22,7.4,7.4,92,0.00,,,0.00,VWS V14.01,2013-06-07 23:36:00,
2013-06-07 19:41:00,65.7,63.3,29.20,NE,45,5.8,5.8,92,0.00,,,0.00,VWS V14.01,2013-06-07 23:41:00,
2013-06-07 19:46:00,65.7,63.0,29.20,NNE,22,6.5,6.5,91,0.00,,,0.00,VWS V14.01,2013-06-07 23:46:00,
2013-06-07 19:51:00,65.5,62.8,29.20,NE,45,10.1,10.1,91,0.00,,,0.00,VWS V14.01,2013-06-07 23:51:00,
2013-06-07 19:56:00,65.5,62.8,29.20,ENE,68,5.4,5.4,91,0.00,,,0.00,VWS V14.01,2013-06-07 23:56:00,
2013-06-07 20:01:00,65.5,62.8,29.20,NNE,22,9.0,9.0,91,0.00,,,0.00,VWS V14.01,2013-06-08 00:01:00,
2013-06-07 20:07:00,65.3,62.6,29.20,NNE,22,5.4,5.4,91,0.00,,,0.00,VWS V14.01,2013-06-08 00:07:00,
2013-06-07 20:12:00,65.3,62.6,29.20,NE,45,5.8,5.8,91,0.00,,,0.00,VWS V14.01,2013-06-08 00:12:00,
2013-06-07 20:17:00,65.3,62.6,29.20,NE,45,5.8,5.8,91,0.00,,,0.00,VWS V14.01,2013-06-08 00:17:00,
2013-06-07 20:22:00,65.1,62.4,29.20,NNE,22,6.9,6.9,91,0.00,,,0.00,VWS V14.01,2013-06-08 00:22:00,
2013-06-07 20:27:00,65.1,62.4,29.20,NNE,22,8.7,8.7,91,0.00,,,0.00,VWS V14.01,2013-06-08 00:27:00,
2013-06-07 20:32:00,64.9,61.9,29.20,NE,45,6.3,6.3,90,0.00,,,0.00,VWS V14.01,2013-06-08 00:32:00,
2013-06-07 20:37:00,64.9,61.9,29.20,NE,45,5.6,5.6,90,0.00,,,0.00,VWS V14.01,2013-06-08 00:37:00,
2013-06-07 20:42:00,64.9,61.9,29.20,NE,45,5.6,5.6,90,0.00,,,0.00,VWS V14.01,2013-06-08 00:42:00,
2013-06-07 20:48:00,64.8,61.8,29.20,NE,45,6.3,6.3,90,0.00,,,0.00,VWS V14.01,2013-06-08 00:48:00,
2013-06-07 20:53:00,64.8,61.8,29.20,NE,45,4.9,4.9,90,0.00,,,0.00,VWS V14.01,2013-06-08 00:53:00,
2013-06-07 20:58:00,64.8,61.8,29.17,NE,45,4.3,4.3,90,0.00,,,0.00,VWS V14.01,2013-06-08 00:58:00,
2013-06-07 21:03:00,64.6,61.6,29.17,ENE,68,3.1,3.1,90,0.00,,,0.00,VWS V14.01,2013-06-08 01:03:00,
2013-06-07 21:08:00,64.6,61.6,29.17,NE,45,5.4,5.4,90,0.00,,,0.00,VWS V14.01,2013-06-08 01:08:00,
2013-06-07 21:13:00,64.6,61.6,29.17,NE,45,2.5,2.5,90,0.00,,,0.00,VWS V14.01,2013-06-08 01:13:00,
2013-06-07 21:18:00,64.6,61.6,29.17,NE,45,3.1,3.1,90,0.00,,,0.00,VWS V14.01,2013-06-08 01:18:00,
2013-06-07 21:24:00,64.6,61.9,29.20,ENE,68,2.7,2.7,91,0.00,,,0.00,VWS V14.01,2013-06-08 01:24:00,
2013-06-07 21:29:00,64.4,61.7,29.20,ENE,68,1.3,1.3,91,0.00,,,0.00,VWS V14.01,2013-06-08 01:29:00,
2013-06-07 21:34:00,64.4,61.7,29.20,NE,45,2.0,2.0,91,0.00,,,0.00,VWS V14.01,2013-06-08 01:34:00,
2013-06-07 21:39:00,64.4,61.7,29.20,North,0,1.1,1.1,91,0.00,,,0.00,VWS V14.01,2013-06-08 01:39:00,
2013-06-07 21:44:00,64.4,61.7,29.20,NNW,338,1.3,1.3,91,0.00,,,0.00,VWS V14.01,2013-06-08 01:44:00,
2013-06-07 21:49:00,64.4,61.7,29.20,NNW,338,1.1,1.1,91,0.00,,,0.00,VWS V14.01,2013-06-08 01:49:00,
2013-06-07 21:54:00,64.4,61.7,29.20,NNW,338,0.9,0.9,91,0.00,,,0.00,VWS V14.01,2013-06-08 01:54:00,
2013-06-07 21:59:00,64.6,61.9,29.20,NNW,338,1.6,1.6,91,0.00,,,0.00,VWS V14.01,2013-06-08 01:59:00,
2013-06-07 22:04:00,64.6,62.2,29.20,NNW,338,1.6,1.6,92,0.00,,,0.00,VWS V14.01,2013-06-08 02:04:00,
2013-06-07 22:10:00,64.8,62.4,29.23,NNE,22,2.0,2.0,92,0.00,,,0.00,VWS V14.01,2013-06-08 02:10:00,
2013-06-07 22:15:00,64.8,62.4,29.23,ESE,112,2.2,2.2,92,0.00,,,0.00,VWS V14.01,2013-06-08 02:15:00,
2013-06-07 22:20:00,64.6,62.2,29.23,SE,135,0.0,0.0,92,0.00,,,0.00,VWS V14.01,2013-06-08 02:20:00,
2013-06-07 22:25:00,64.6,62.2,29.23,East,90,0.0,0.0,92,0.00,,,0.00,VWS V14.01,2013-06-08 02:25:00,
2013-06-07 22:30:00,64.6,62.2,29.23,South,180,0.0,0.0,92,0.00,,,0.00,VWS V14.01,2013-06-08 02:30:00,
2013-06-07 22:36:00,64.6,62.2,29.23,ESE,112,1.1,1.1,92,0.00,,,0.00,VWS V14.01,2013-06-08 02:36:00,
2013-06-07 22:41:00,64.4,62.0,29.23,East,90,0.0,0.0,92,0.00,,,0.00,VWS V14.01,2013-06-08 02:41:00,
2013-06-07 22:46:00,64.4,62.0,29.23,East,90,2.7,2.7,92,0.00,,,0.00,VWS V14.01,2013-06-08 02:46:00,
2013-06-07 22:51:00,64.2,62.2,29.23,ESE,112,2.7,2.7,93,0.00,,,0.00,VWS V14.01,2013-06-08 02:51:00,
2013-06-07 22:56:00,64.0,61.7,29.23,NW,315,0.0,0.0,92,0.00,,,0.00,VWS V14.01,2013-06-08 02:56:00,
2013-06-07 23:02:00,63.9,61.5,29.23,NW,315,0.0,0.0,92,0.00,,,0.00,VWS V14.01,2013-06-08 03:02:00,
2013-06-07 23:07:00,63.9,61.5,29.23,NW,315,0.0,0.0,92,0.00,,,0.00,VWS V14.01,2013-06-08 03:07:00,
2013-06-07 23:12:00,63.9,61.5,29.23,NW,315,0.0,0.0,92,0.00,,,0.00,VWS V14.01,2013-06-08 03:12:00,
2013-06-07 23:17:00,63.9,61.5,29.23,NW,315,0.0,0.0,92,0.00,,,0.00,VWS V14.01,2013-06-08 03:17:00,
2013-06-07 23:23:00,63.9,61.8,29.23,NW,315,1.3,1.3,93,0.00,,,0.00,VWS V14.01,2013-06-08 03:23:00,
2013-06-07 23:28:00,63.9,61.8,29.26,NW,315,2.0,2.0,93,0.00,,,0.00,VWS V14.01,2013-06-08 03:28:00,
2013-06-07 23:33:00,63.9,61.8,29.26,NNW,338,0.0,0.0,93,0.00,,,0.00,VWS V14.01,2013-06-08 03:33:00,
2013-06-07 23:38:00,63.9,61.8,29.26,NNW,338,0.0,0.0,93,0.00,,,0.00,VWS V14.01,2013-06-08 03:38:00,
2013-06-07 23:43:00,63.9,61.8,29.23,NNW,338,0.0,0.0,93,0.00,,,0.00,VWS V14.01,2013-06-08 03:43:00,
2013-06-07 23:49:00,64.0,62.0,29.23,NNW,338,0.0,0.0,93,0.00,,,0.00,VWS V14.01,2013-06-08 03:49:00,
2013-06-07 23:54:00,64.0,62.0,29.26,NNW,338,0.0,0.0,93,0.00,,,0.00,VWS V14.01,2013-06-08 03:54:00,
2013-06-07 23:59:00,64.0,62.0,29.26,NNW,338,0.0,0.0,93,0.00,,,0.00,VWS V14.01,2013-06-08 03:59:00,